Terminal Aerodrome Forecast
Issued by NWS

Home | Current Version | Previous Version | Text Only | Print | Product List | Glossary On
Versions: 1 2 3 4 5 6 7 8 9 10 11 12 13 14 15 16 17 18 19 20 21
932
FTUS43 KIND 221120
TAFHUF
TAF
KHUF 221120Z 2212/2312 09004KT P6SM OVC120
     FM221800 04008KT P6SM -SHRA OVC035
     FM222100 02009KT P6SM VCSH BKN025
     FM230400 35011G19KT 3SM BR VCSH OVC008
     FM230600 35013G21KT 5SM BR OVC008=

USA.gov is the U.S. government's official web portal to all federal, state and local government web resources and services.